sensor_id;sensor_type;location;lat;lon;timestamp;P1;durP1;ratioP1;P2;durP2;ratioP2
37715;SDS011;23562;50.540;12.504;2024-03-07T00:01:25;39.88;;;20.35;;
37715;SDS011;23562;50.540;12.504;2024-03-07T00:03:51;45.17;;;22.88;;
37715;SDS011;23562;50.540;12.504;2024-03-07T00:06:16;38.30;;;20.95;;
37715;SDS011;23562;50.540;12.504;2024-03-07T00:08:41;44.17;;;23.80;;
37715;SDS011;23562;50.540;12.504;2024-03-07T00:11:07;41.47;;;22.25;;
37715;SDS011;23562;50.540;12.504;2024-03-07T00:13:32;46.40;;;24.48;;
37715;SDS011;23562;50.540;12.504;2024-03-07T00:15:57;45.03;;;22.95;;
37715;SDS011;23562;50.540;12.504;2024-03-07T00:18:22;44.83;;;23.63;;
37715;SDS011;23562;50.540;12.504;2024-03-07T00:20:47;46.50;;;23.25;;
37715;SDS011;23562;50.540;12.504;2024-03-07T00:23:12;44.22;;;23.05;;
37715;SDS011;23562;50.540;12.504;2024-03-07T00:25:38;43.97;;;23.75;;
37715;SDS011;23562;50.540;12.504;2024-03-07T00:28:03;45.83;;;22.77;;
37715;SDS011;23562;50.540;12.504;2024-03-07T00:30:29;42.42;;;22.35;;
37715;SDS011;23562;50.540;12.504;2024-03-07T00:32:54;42.85;;;21.98;;
37715;SDS011;23562;50.540;12.504;2024-03-07T00:35:20;42.80;;;23.08;;
37715;SDS011;23562;50.540;12.504;2024-03-07T00:37:46;41.95;;;22.60;;
37715;SDS011;23562;50.540;12.504;2024-03-07T00:40:11;44.22;;;22.92;;
37715;SDS011;23562;50.540;12.504;2024-03-07T00:42:36;49.22;;;22.77;;
37715;SDS011;23562;50.540;12.504;2024-03-07T00:45:01;41.45;;;21.70;;
37715;SDS011;23562;50.540;12.504;2024-03-07T00:47:28;45.47;;;23.00;;
37715;SDS011;23562;50.540;12.504;2024-03-07T00:49:53;46.13;;;23.42;;
37715;SDS011;23562;50.540;12.504;2024-03-07T00:52:18;43.25;;;23.17;;
37715;SDS011;23562;50.540;12.504;2024-03-07T00:54:44;39.67;;;21.40;;
37715;SDS011;23562;50.540;12.504;2024-03-07T00:57:09;41.40;;;21.98;;
37715;SDS011;23562;50.540;12.504;2024-03-07T00:59:34;45.50;;;23.23;;
37715;SDS011;23562;50.540;12.504;2024-03-07T01:02:00;41.53;;;23.00;;
37715;SDS011;23562;50.540;12.504;2024-03-07T01:04:25;43.00;;;23.83;;
37715;SDS011;23562;50.540;12.504;2024-03-07T01:06:55;37.55;;;21.65;;
37715;SDS011;23562;50.540;12.504;2024-03-07T01:09:21;43.47;;;23.53;;
37715;SDS011;23562;50.540;12.504;2024-03-07T01:11:48;43.15;;;23.67;;
37715;SDS011;23562;50.540;12.504;2024-03-07T01:14:14;45.28;;;23.27;;
37715;SDS011;23562;50.540;12.504;2024-03-07T01:16:39;47.40;;;24.50;;
37715;SDS011;23562;50.540;12.504;2024-03-07T01:19:04;46.42;;;24.33;;
37715;SDS011;23562;50.540;12.504;2024-03-07T01:21:33;47.30;;;24.77;;
37715;SDS011;23562;50.540;12.504;2024-03-07T01:23:58;46.92;;;25.00;;
37715;SDS011;23562;50.540;12.504;2024-03-07T01:26:25;45.80;;;24.70;;
37715;SDS011;23562;50.540;12.504;2024-03-07T01:28:50;48.60;;;24.30;;
37715;SDS011;23562;50.540;12.504;2024-03-07T01:31:15;49.83;;;25.45;;
37715;SDS011;23562;50.540;12.504;2024-03-07T01:33:40;47.75;;;25.00;;
37715;SDS011;23562;50.540;12.504;2024-03-07T01:36:05;48.13;;;24.13;;
37715;SDS011;23562;50.540;12.504;2024-03-07T01:38:31;50.78;;;26.00;;
37715;SDS011;23562;50.540;12.504;2024-03-07T01:40:56;49.58;;;24.95;;
37715;SDS011;23562;50.540;12.504;2024-03-07T01:43:21;49.58;;;26.02;;
37715;SDS011;23562;50.540;12.504;2024-03-07T01:45:46;48.70;;;24.40;;
37715;SDS011;23562;50.540;12.504;2024-03-07T01:48:12;49.63;;;26.02;;
37715;SDS011;23562;50.540;12.504;2024-03-07T01:50:41;49.92;;;24.55;;
37715;SDS011;23562;50.540;12.504;2024-03-07T01:53:06;47.53;;;25.95;;
37715;SDS011;23562;50.540;12.504;2024-03-07T01:55:34;50.83;;;26.10;;
37715;SDS011;23562;50.540;12.504;2024-03-07T01:58:00;46.80;;;25.02;;
37715;SDS011;23562;50.540;12.504;2024-03-07T02:00:27;51.72;;;26.05;;
37715;SDS011;23562;50.540;12.504;2024-03-07T02:02:53;53.28;;;25.95;;
37715;SDS011;23562;50.540;12.504;2024-03-07T02:05:18;50.78;;;25.25;;
37715;SDS011;23562;50.540;12.504;2024-03-07T02:07:43;51.58;;;25.48;;
37715;SDS011;23562;50.540;12.504;2024-03-07T02:10:09;47.63;;;25.33;;
37715;SDS011;23562;50.540;12.504;2024-03-07T02:12:34;46.58;;;24.70;;
37715;SDS011;23562;50.540;12.504;2024-03-07T02:14:59;44.67;;;23.20;;
37715;SDS011;23562;50.540;12.504;2024-03-07T02:17:25;46.63;;;24.60;;
37715;SDS011;23562;50.540;12.504;2024-03-07T02:19:50;48.22;;;24.48;;
37715;SDS011;23562;50.540;12.504;2024-03-07T02:22:15;47.17;;;23.42;;
37715;SDS011;23562;50.540;12.504;2024-03-07T02:24:40;49.70;;;24.13;;
37715;SDS011;23562;50.540;12.504;2024-03-07T02:27:06;49.20;;;23.05;;
37715;SDS011;23562;50.540;12.504;2024-03-07T02:29:33;48.88;;;23.60;;
37715;SDS011;23562;50.540;12.504;2024-03-07T02:31:58;54.30;;;23.70;;
37715;SDS011;23562;50.540;12.504;2024-03-07T02:34:23;41.03;;;22.83;;
37715;SDS011;23562;50.540;12.504;2024-03-07T02:36:49;48.35;;;23.67;;
37715;SDS011;23562;50.540;12.504;2024-03-07T02:39:14;46.10;;;22.98;;
37715;SDS011;23562;50.540;12.504;2024-03-07T02:41:40;45.67;;;23.50;;
37715;SDS011;23562;50.540;12.504;2024-03-07T02:44:05;45.35;;;23.48;;
37715;SDS011;23562;50.540;12.504;2024-03-07T02:46:30;49.22;;;23.35;;
37715;SDS011;23562;50.540;12.504;2024-03-07T02:48:57;43.55;;;24.45;;
37715;SDS011;23562;50.540;12.504;2024-03-07T02:51:22;50.00;;;24.17;;
37715;SDS011;23562;50.540;12.504;2024-03-07T02:53:48;51.38;;;25.02;;
37715;SDS011;23562;50.540;12.504;2024-03-07T02:56:13;52.28;;;25.33;;
37715;SDS011;23562;50.540;12.504;2024-03-07T02:58:38;51.30;;;25.40;;
37715;SDS011;23562;50.540;12.504;2024-03-07T03:01:04;56.70;;;27.90;;
37715;SDS011;23562;50.540;12.504;2024-03-07T03:03:29;57.30;;;25.80;;
37715;SDS011;23562;50.540;12.504;2024-03-07T03:05:58;52.10;;;26.05;;
37715;SDS011;23562;50.540;12.504;2024-03-07T03:08:23;57.70;;;26.45;;
37715;SDS011;23562;50.540;12.504;2024-03-07T03:10:49;57.20;;;26.08;;
37715;SDS011;23562;50.540;12.504;2024-03-07T03:13:16;54.45;;;25.95;;
37715;SDS011;23562;50.540;12.504;2024-03-07T03:15:41;54.88;;;26.48;;
37715;SDS011;23562;50.540;12.504;2024-03-07T03:18:06;53.40;;;25.50;;
37715;SDS011;23562;50.540;12.504;2024-03-07T03:20:31;60.90;;;27.35;;
37715;SDS011;23562;50.540;12.504;2024-03-07T03:23:00;67.80;;;28.52;;
37715;SDS011;23562;50.540;12.504;2024-03-07T03:25:25;64.05;;;27.17;;
37715;SDS011;23562;50.540;12.504;2024-03-07T03:27:51;59.00;;;27.50;;
37715;SDS011;23562;50.540;12.504;2024-03-07T03:30:16;63.17;;;28.88;;
37715;SDS011;23562;50.540;12.504;2024-03-07T03:32:43;60.97;;;26.88;;
37715;SDS011;23562;50.540;12.504;2024-03-07T03:35:08;70.63;;;29.23;;
37715;SDS011;23562;50.540;12.504;2024-03-07T03:37:38;71.90;;;29.88;;
37715;SDS011;23562;50.540;12.504;2024-03-07T03:40:03;72.20;;;29.75;;
37715;SDS011;23562;50.540;12.504;2024-03-07T03:42:29;66.70;;;29.20;;
37715;SDS011;23562;50.540;12.504;2024-03-07T03:44:54;68.65;;;30.75;;
37715;SDS011;23562;50.540;12.504;2024-03-07T03:47:20;68.37;;;30.57;;
37715;SDS011;23562;50.540;12.504;2024-03-07T03:49:45;78.15;;;30.38;;
37715;SDS011;23562;50.540;12.504;2024-03-07T03:52:10;67.50;;;29.73;;
37715;SDS011;23562;50.540;12.504;2024-03-07T03:54:35;69.95;;;30.85;;
37715;SDS011;23562;50.540;12.504;2024-03-07T03:57:00;77.65;;;31.98;;
37715;SDS011;23562;50.540;12.504;2024-03-07T03:59:25;68.43;;;29.85;;
37715;SDS011;23562;50.540;12.504;2024-03-07T04:01:51;67.25;;;29.35;;
37715;SDS011;23562;50.540;12.504;2024-03-07T04:04:16;82.65;;;30.90;;
37715;SDS011;23562;50.540;12.504;2024-03-07T04:06:41;69.93;;;31.00;;
37715;SDS011;23562;50.540;12.504;2024-03-07T04:09:06;75.15;;;31.77;;
37715;SDS011;23562;50.540;12.504;2024-03-07T04:11:32;79.38;;;32.20;;
37715;SDS011;23562;50.540;12.504;2024-03-07T04:13:57;77.55;;;31.63;;
37715;SDS011;23562;50.540;12.504;2024-03-07T04:16:22;71.60;;;30.40;;
37715;SDS011;23562;50.540;12.504;2024-03-07T04:18:48;70.30;;;28.80;;
37715;SDS011;23562;50.540;12.504;2024-03-07T04:21:13;74.85;;;32.08;;
37715;SDS011;23562;50.540;12.504;2024-03-07T04:23:40;75.40;;;31.83;;
37715;SDS011;23562;50.540;12.504;2024-03-07T04:26:05;72.35;;;31.08;;
37715;SDS011;23562;50.540;12.504;2024-03-07T04:28:30;78.22;;;32.78;;
37715;SDS011;23562;50.540;12.504;2024-03-07T04:30:55;85.18;;;32.42;;
37715;SDS011;23562;50.540;12.504;2024-03-07T04:33:20;85.80;;;31.80;;
37715;SDS011;23562;50.540;12.504;2024-03-07T04:35:45;74.25;;;30.90;;
37715;SDS011;23562;50.540;12.504;2024-03-07T04:38:10;82.93;;;31.33;;
37715;SDS011;23562;50.540;12.504;2024-03-07T04:40:39;81.75;;;31.98;;
37715;SDS011;23562;50.540;12.504;2024-03-07T04:43:05;76.60;;;33.20;;
37715;SDS011;23562;50.540;12.504;2024-03-07T04:45:30;75.75;;;31.45;;
37715;SDS011;23562;50.540;12.504;2024-03-07T04:47:56;73.53;;;31.55;;
37715;SDS011;23562;50.540;12.504;2024-03-07T04:50:21;86.47;;;33.97;;
37715;SDS011;23562;50.540;12.504;2024-03-07T04:52:46;82.05;;;32.47;;
37715;SDS011;23562;50.540;12.504;2024-03-07T04:55:11;73.05;;;31.25;;
37715;SDS011;23562;50.540;12.504;2024-03-07T04:57:38;82.93;;;32.05;;
37715;SDS011;23562;50.540;12.504;2024-03-07T05:00:08;71.10;;;31.63;;
37715;SDS011;23562;50.540;12.504;2024-03-07T05:02:38;69.78;;;30.20;;
37715;SDS011;23562;50.540;12.504;2024-03-07T05:05:04;72.07;;;32.25;;
37715;SDS011;23562;50.540;12.504;2024-03-07T05:07:29;74.50;;;32.47;;
37715;SDS011;23562;50.540;12.504;2024-03-07T05:09:54;72.55;;;31.30;;
37715;SDS011;23562;50.540;12.504;2024-03-07T05:12:19;68.25;;;30.88;;
37715;SDS011;23562;50.540;12.504;2024-03-07T05:14:44;78.65;;;34.03;;
37715;SDS011;23562;50.540;12.504;2024-03-07T05:17:09;71.63;;;31.55;;
37715;SDS011;23562;50.540;12.504;2024-03-07T05:19:35;70.05;;;30.52;;
37715;SDS011;23562;50.540;12.504;2024-03-07T05:22:01;64.85;;;31.25;;
37715;SDS011;23562;50.540;12.504;2024-03-07T05:24:27;71.57;;;30.88;;
37715;SDS011;23562;50.540;12.504;2024-03-07T05:26:52;72.60;;;30.73;;
37715;SDS011;23562;50.540;12.504;2024-03-07T05:29:18;67.72;;;30.98;;
37715;SDS011;23562;50.540;12.504;2024-03-07T05:31:44;63.93;;;30.80;;
37715;SDS011;23562;50.540;12.504;2024-03-07T05:34:12;64.40;;;30.40;;
37715;SDS011;23562;50.540;12.504;2024-03-07T05:36:37;61.50;;;28.67;;
37715;SDS011;23562;50.540;12.504;2024-03-07T05:39:09;64.55;;;28.70;;
37715;SDS011;23562;50.540;12.504;2024-03-07T05:41:35;65.60;;;30.65;;
37715;SDS011;23562;50.540;12.504;2024-03-07T05:44:01;64.93;;;29.35;;
37715;SDS011;23562;50.540;12.504;2024-03-07T05:46:26;66.75;;;29.70;;
37715;SDS011;23562;50.540;12.504;2024-03-07T05:48:51;67.97;;;30.05;;
37715;SDS011;23562;50.540;12.504;2024-03-07T05:51:20;62.38;;;28.95;;
37715;SDS011;23562;50.540;12.504;2024-03-07T05:53:46;59.30;;;29.30;;
37715;SDS011;23562;50.540;12.504;2024-03-07T05:56:11;63.53;;;28.95;;
37715;SDS011;23562;50.540;12.504;2024-03-07T05:58:36;62.60;;;27.90;;
37715;SDS011;23562;50.540;12.504;2024-03-07T06:01:02;62.38;;;28.90;;
37715;SDS011;23562;50.540;12.504;2024-03-07T06:03:27;63.30;;;28.10;;
37715;SDS011;23562;50.540;12.504;2024-03-07T06:05:52;66.67;;;28.27;;
37715;SDS011;23562;50.540;12.504;2024-03-07T06:08:18;57.13;;;27.42;;
37715;SDS011;23562;50.540;12.504;2024-03-07T06:10:44;67.90;;;30.50;;
37715;SDS011;23562;50.540;12.504;2024-03-07T06:13:10;57.33;;;28.17;;
37715;SDS011;23562;50.540;12.504;2024-03-07T06:15:36;66.68;;;28.45;;
37715;SDS011;23562;50.540;12.504;2024-03-07T06:18:03;59.53;;;28.30;;
37715;SDS011;23562;50.540;12.504;2024-03-07T06:20:28;58.10;;;27.15;;
37715;SDS011;23562;50.540;12.504;2024-03-07T06:22:53;55.42;;;25.23;;
37715;SDS011;23562;50.540;12.504;2024-03-07T06:25:18;62.40;;;27.80;;
37715;SDS011;23562;50.540;12.504;2024-03-07T06:27:45;62.78;;;27.23;;
37715;SDS011;23562;50.540;12.504;2024-03-07T06:30:14;56.33;;;25.95;;
37715;SDS011;23562;50.540;12.504;2024-03-07T06:32:42;60.83;;;26.23;;
37715;SDS011;23562;50.540;12.504;2024-03-07T06:35:08;58.60;;;26.58;;
37715;SDS011;23562;50.540;12.504;2024-03-07T06:37:33;58.60;;;25.33;;
37715;SDS011;23562;50.540;12.504;2024-03-07T06:39:59;55.38;;;25.95;;
37715;SDS011;23562;50.540;12.504;2024-03-07T06:42:24;56.40;;;26.05;;
37715;SDS011;23562;50.540;12.504;2024-03-07T06:44:49;56.05;;;26.45;;
37715;SDS011;23562;50.540;12.504;2024-03-07T06:47:14;64.28;;;29.50;;
37715;SDS011;23562;50.540;12.504;2024-03-07T06:49:39;63.63;;;28.63;;
37715;SDS011;23562;50.540;12.504;2024-03-07T06:52:05;57.25;;;28.10;;
37715;SDS011;23562;50.540;12.504;2024-03-07T06:54:30;60.92;;;27.55;;
37715;SDS011;23562;50.540;12.504;2024-03-07T06:56:56;64.30;;;30.10;;
37715;SDS011;23562;50.540;12.504;2024-03-07T06:59:21;59.57;;;28.40;;
37715;SDS011;23562;50.540;12.504;2024-03-07T07:01:47;63.45;;;28.48;;
37715;SDS011;23562;50.540;12.504;2024-03-07T07:04:12;64.55;;;29.38;;
37715;SDS011;23562;50.540;12.504;2024-03-07T07:06:39;58.63;;;28.00;;
37715;SDS011;23562;50.540;12.504;2024-03-07T07:09:07;63.42;;;28.73;;
37715;SDS011;23562;50.540;12.504;2024-03-07T07:11:33;65.73;;;29.83;;
37715;SDS011;23562;50.540;12.504;2024-03-07T07:13:59;71.63;;;31.27;;
37715;SDS011;23562;50.540;12.504;2024-03-07T07:16:24;73.70;;;31.87;;
37715;SDS011;23562;50.540;12.504;2024-03-07T07:18:49;65.68;;;30.92;;
37715;SDS011;23562;50.540;12.504;2024-03-07T07:21:15;71.65;;;31.30;;
37715;SDS011;23562;50.540;12.504;2024-03-07T07:23:40;73.90;;;32.58;;
37715;SDS011;23562;50.540;12.504;2024-03-07T07:26:06;72.18;;;32.13;;
37715;SDS011;23562;50.540;12.504;2024-03-07T07:28:31;70.10;;;31.65;;
37715;SDS011;23562;50.540;12.504;2024-03-07T07:30:56;74.68;;;32.92;;
37715;SDS011;23562;50.540;12.504;2024-03-07T07:33:21;67.30;;;30.98;;
37715;SDS011;23562;50.540;12.504;2024-03-07T07:35:46;84.97;;;35.73;;
37715;SDS011;23562;50.540;12.504;2024-03-07T07:38:11;96.63;;;42.05;;
37715;SDS011;23562;50.540;12.504;2024-03-07T07:40:38;134.98;;;57.67;;
37715;SDS011;23562;50.540;12.504;2024-03-07T07:43:03;177.93;;;71.32;;
37715;SDS011;23562;50.540;12.504;2024-03-07T07:45:29;183.45;;;78.45;;
37715;SDS011;23562;50.540;12.504;2024-03-07T07:47:54;180.68;;;75.05;;
37715;SDS011;23562;50.540;12.504;2024-03-07T07:50:20;153.55;;;65.78;;
37715;SDS011;23562;50.540;12.504;2024-03-07T07:52:49;128.35;;;54.60;;
37715;SDS011;23562;50.540;12.504;2024-03-07T07:55:15;161.63;;;65.15;;
37715;SDS011;23562;50.540;12.504;2024-03-07T07:57:44;157.77;;;62.13;;
37715;SDS011;23562;50.540;12.504;2024-03-07T08:00:11;119.75;;;49.63;;
37715;SDS011;23562;50.540;12.504;2024-03-07T08:02:36;109.32;;;46.03;;
37715;SDS011;23562;50.540;12.504;2024-03-07T08:05:02;138.85;;;58.05;;
37715;SDS011;23562;50.540;12.504;2024-03-07T08:07:30;108.35;;;46.40;;
37715;SDS011;23562;50.540;12.504;2024-03-07T08:09:55;100.07;;;41.78;;
37715;SDS011;23562;50.540;12.504;2024-03-07T08:12:21;97.43;;;43.05;;
37715;SDS011;23562;50.540;12.504;2024-03-07T08:14:46;91.10;;;40.40;;
37715;SDS011;23562;50.540;12.504;2024-03-07T08:17:11;78.68;;;39.28;;
37715;SDS011;23562;50.540;12.504;2024-03-07T08:19:36;75.60;;;35.10;;
37715;SDS011;23562;50.540;12.504;2024-03-07T08:22:01;68.28;;;34.38;;
37715;SDS011;23562;50.540;12.504;2024-03-07T08:24:27;68.28;;;33.55;;
37715;SDS011;23562;50.540;12.504;2024-03-07T08:26:52;71.07;;;34.13;;
37715;SDS011;23562;50.540;12.504;2024-03-07T08:29:18;65.28;;;32.10;;
37715;SDS011;23562;50.540;12.504;2024-03-07T08:31:43;61.63;;;30.93;;
37715;SDS011;23562;50.540;12.504;2024-03-07T08:34:09;53.70;;;29.27;;
37715;SDS011;23562;50.540;12.504;2024-03-07T08:36:34;53.30;;;28.77;;
37715;SDS011;23562;50.540;12.504;2024-03-07T08:39:01;53.33;;;27.10;;
37715;SDS011;23562;50.540;12.504;2024-03-07T08:41:28;52.13;;;26.70;;
37715;SDS011;23562;50.540;12.504;2024-03-07T08:43:54;50.55;;;26.88;;
37715;SDS011;23562;50.540;12.504;2024-03-07T08:46:19;47.92;;;26.58;;
37715;SDS011;23562;50.540;12.504;2024-03-07T08:48:44;48.83;;;25.13;;
37715;SDS011;23562;50.540;12.504;2024-03-07T08:51:10;47.28;;;25.45;;
37715;SDS011;23562;50.540;12.504;2024-03-07T08:53:35;40.63;;;23.30;;
37715;SDS011;23562;50.540;12.504;2024-03-07T08:56:01;43.03;;;24.20;;
37715;SDS011;23562;50.540;12.504;2024-03-07T08:58:27;40.45;;;23.40;;
37715;SDS011;23562;50.540;12.504;2024-03-07T09:00:53;38.25;;;22.23;;
37715;SDS011;23562;50.540;12.504;2024-03-07T09:03:18;41.30;;;21.85;;
37715;SDS011;23562;50.540;12.504;2024-03-07T09:05:43;38.20;;;22.02;;
37715;SDS011;23562;50.540;12.504;2024-03-07T09:08:08;46.78;;;25.83;;
37715;SDS011;23562;50.540;12.504;2024-03-07T09:10:34;39.43;;;22.43;;
37715;SDS011;23562;50.540;12.504;2024-03-07T09:12:59;41.73;;;22.10;;
37715;SDS011;23562;50.540;12.504;2024-03-07T09:15:24;37.10;;;20.30;;
37715;SDS011;23562;50.540;12.504;2024-03-07T09:17:49;36.67;;;20.67;;
37715;SDS011;23562;50.540;12.504;2024-03-07T09:20:15;38.33;;;19.70;;
37715;SDS011;23562;50.540;12.504;2024-03-07T09:22:40;37.35;;;19.27;;
37715;SDS011;23562;50.540;12.504;2024-03-07T09:25:06;36.90;;;19.20;;
37715;SDS011;23562;50.540;12.504;2024-03-07T09:27:31;35.78;;;18.08;;
37715;SDS011;23562;50.540;12.504;2024-03-07T09:29:56;28.92;;;16.88;;
37715;SDS011;23562;50.540;12.504;2024-03-07T09:32:22;32.08;;;18.33;;
37715;SDS011;23562;50.540;12.504;2024-03-07T09:34:49;27.10;;;16.42;;
37715;SDS011;23562;50.540;12.504;2024-03-07T09:37:14;28.00;;;16.13;;
37715;SDS011;23562;50.540;12.504;2024-03-07T09:39:39;31.83;;;17.30;;
37715;SDS011;23562;50.540;12.504;2024-03-07T09:42:05;31.25;;;17.08;;
37715;SDS011;23562;50.540;12.504;2024-03-07T09:44:33;29.90;;;17.27;;
37715;SDS011;23562;50.540;12.504;2024-03-07T09:46:58;30.45;;;16.52;;
37715;SDS011;23562;50.540;12.504;2024-03-07T09:49:25;28.38;;;15.50;;
37715;SDS011;23562;50.540;12.504;2024-03-07T09:51:53;26.20;;;15.50;;
37715;SDS011;23562;50.540;12.504;2024-03-07T09:54:23;29.93;;;17.43;;
37715;SDS011;23562;50.540;12.504;2024-03-07T09:56:50;27.08;;;14.90;;
37715;SDS011;23562;50.540;12.504;2024-03-07T09:59:16;31.85;;;17.70;;
37715;SDS011;23562;50.540;12.504;2024-03-07T10:01:45;35.22;;;18.15;;
37715;SDS011;23562;50.540;12.504;2024-03-07T10:04:12;33.20;;;17.15;;
37715;SDS011;23562;50.540;12.504;2024-03-07T10:06:39;32.30;;;17.42;;
37715;SDS011;23562;50.540;12.504;2024-03-07T10:09:05;31.55;;;18.73;;
37715;SDS011;23562;50.540;12.504;2024-03-07T10:11:30;31.35;;;18.20;;
37715;SDS011;23562;50.540;12.504;2024-03-07T10:13:56;32.90;;;17.45;;
37715;SDS011;23562;50.540;12.504;2024-03-07T10:16:21;30.83;;;17.97;;
37715;SDS011;23562;50.540;12.504;2024-03-07T10:18:46;36.22;;;17.90;;
37715;SDS011;23562;50.540;12.504;2024-03-07T10:21:14;33.08;;;17.88;;
37715;SDS011;23562;50.540;12.504;2024-03-07T10:23:43;38.25;;;19.95;;
37715;SDS011;23562;50.540;12.504;2024-03-07T10:26:08;31.17;;;18.50;;
37715;SDS011;23562;50.540;12.504;2024-03-07T10:28:35;34.95;;;20.25;;
37715;SDS011;23562;50.540;12.504;2024-03-07T10:31:00;36.70;;;22.48;;
37715;SDS011;23562;50.540;12.504;2024-03-07T10:33:28;63.38;;;35.53;;
37715;SDS011;23562;50.540;12.504;2024-03-07T10:35:57;163.70;;;63.53;;
37715;SDS011;23562;50.540;12.504;2024-03-07T10:38:23;78.70;;;37.90;;
37715;SDS011;23562;50.540;12.504;2024-03-07T10:40:49;57.10;;;31.03;;
37715;SDS011;23562;50.540;12.504;2024-03-07T10:43:18;66.18;;;32.15;;
37715;SDS011;23562;50.540;12.504;2024-03-07T10:45:44;57.03;;;29.92;;
37715;SDS011;23562;50.540;12.504;2024-03-07T10:48:13;48.30;;;23.80;;
37715;SDS011;23562;50.540;12.504;2024-03-07T10:50:49;34.55;;;20.92;;
37715;SDS011;23562;50.540;12.504;2024-03-07T10:56:10;37.40;;;24.10;;
37715;SDS011;23562;50.540;12.504;2024-03-07T10:58:49;32.42;;;19.30;;
37715;SDS011;23562;50.540;12.504;2024-03-07T11:01:19;33.00;;;19.02;;
37715;SDS011;23562;50.540;12.504;2024-03-07T11:03:45;30.50;;;19.33;;
37715;SDS011;23562;50.540;12.504;2024-03-07T11:06:10;30.67;;;18.67;;
37715;SDS011;23562;50.540;12.504;2024-03-07T11:08:36;28.77;;;18.02;;
37715;SDS011;23562;50.540;12.504;2024-03-07T11:11:02;33.03;;;19.13;;
37715;SDS011;23562;50.540;12.504;2024-03-07T11:13:27;35.50;;;18.27;;
37715;SDS011;23562;50.540;12.504;2024-03-07T11:15:53;34.90;;;19.58;;
37715;SDS011;23562;50.540;12.504;2024-03-07T11:18:22;34.15;;;18.75;;
37715;SDS011;23562;50.540;12.504;2024-03-07T11:20:48;30.73;;;16.80;;
37715;SDS011;23562;50.540;12.504;2024-03-07T11:23:32;35.00;;;18.30;;
37715;SDS011;23562;50.540;12.504;2024-03-07T11:26:04;26.65;;;16.42;;
37715;SDS011;23562;50.540;12.504;2024-03-07T11:28:33;26.55;;;15.25;;
37715;SDS011;23562;50.540;12.504;2024-03-07T11:31:08;24.02;;;14.85;;
37715;SDS011;23562;50.540;12.504;2024-03-07T11:33:37;23.30;;;13.95;;
37715;SDS011;23562;50.540;12.504;2024-03-07T11:36:05;27.10;;;15.20;;
37715;SDS011;23562;50.540;12.504;2024-03-07T11:38:33;21.67;;;14.20;;
37715;SDS011;23562;50.540;12.504;2024-03-07T11:41:00;28.13;;;15.00;;
37715;SDS011;23562;50.540;12.504;2024-03-07T11:43:26;25.00;;;13.35;;
37715;SDS011;23562;50.540;12.504;2024-03-07T11:45:52;26.38;;;15.25;;
37715;SDS011;23562;50.540;12.504;2024-03-07T11:48:18;25.08;;;13.88;;
37715;SDS011;23562;50.540;12.504;2024-03-07T11:50:45;27.17;;;15.82;;
37715;SDS011;23562;50.540;12.504;2024-03-07T11:53:10;24.30;;;14.75;;
37715;SDS011;23562;50.540;12.504;2024-03-07T11:55:36;26.57;;;15.03;;
37715;SDS011;23562;50.540;12.504;2024-03-07T11:58:11;25.08;;;13.55;;
37715;SDS011;23562;50.540;12.504;2024-03-07T12:03:09;25.90;;;14.48;;
37715;SDS011;23562;50.540;12.504;2024-03-07T12:05:38;25.83;;;13.95;;
37715;SDS011;23562;50.540;12.504;2024-03-07T12:08:04;29.08;;;13.65;;
37715;SDS011;23562;50.540;12.504;2024-03-07T12:10:30;28.17;;;14.52;;
37715;SDS011;23562;50.540;12.504;2024-03-07T12:12:56;23.92;;;13.43;;
37715;SDS011;23562;50.540;12.504;2024-03-07T12:15:21;26.33;;;13.47;;
37715;SDS011;23562;50.540;12.504;2024-03-07T12:17:46;25.67;;;13.50;;
37715;SDS011;23562;50.540;12.504;2024-03-07T12:20:15;21.02;;;12.60;;
37715;SDS011;23562;50.540;12.504;2024-03-07T12:25:21;20.90;;;12.60;;
37715;SDS011;23562;50.540;12.504;2024-03-07T12:28:02;18.92;;;11.77;;
37715;SDS011;23562;50.540;12.504;2024-03-07T12:30:30;21.95;;;12.80;;
37715;SDS011;23562;50.540;12.504;2024-03-07T12:32:58;24.67;;;13.27;;
37715;SDS011;23562;50.540;12.504;2024-03-07T12:35:23;24.38;;;14.20;;
37715;SDS011;23562;50.540;12.504;2024-03-07T12:37:48;26.70;;;15.20;;
37715;SDS011;23562;50.540;12.504;2024-03-07T12:40:13;31.25;;;16.88;;
37715;SDS011;23562;50.540;12.504;2024-03-07T12:42:46;31.95;;;16.42;;
37715;SDS011;23562;50.540;12.504;2024-03-07T12:45:11;25.80;;;15.40;;
37715;SDS011;23562;50.540;12.504;2024-03-07T12:47:42;28.23;;;15.70;;
37715;SDS011;23562;50.540;12.504;2024-03-07T12:50:07;26.75;;;15.77;;
37715;SDS011;23562;50.540;12.504;2024-03-07T12:52:33;32.38;;;16.20;;
37715;SDS011;23562;50.540;12.504;2024-03-07T12:54:58;26.50;;;16.27;;
37715;SDS011;23562;50.540;12.504;2024-03-07T12:57:23;36.92;;;19.65;;
37715;SDS011;23562;50.540;12.504;2024-03-07T12:59:48;34.10;;;16.92;;
37715;SDS011;23562;50.540;12.504;2024-03-07T13:02:13;27.80;;;16.77;;
37715;SDS011;23562;50.540;12.504;2024-03-07T13:04:38;28.50;;;15.40;;
37715;SDS011;23562;50.540;12.504;2024-03-07T13:07:04;35.20;;;17.47;;
37715;SDS011;23562;50.540;12.504;2024-03-07T13:09:32;27.48;;;16.67;;
37715;SDS011;23562;50.540;12.504;2024-03-07T13:11:58;26.20;;;14.70;;
37715;SDS011;23562;50.540;12.504;2024-03-07T13:14:25;25.23;;;15.88;;
37715;SDS011;23562;50.540;12.504;2024-03-07T13:16:50;29.00;;;15.82;;
37715;SDS011;23562;50.540;12.504;2024-03-07T13:19:16;27.88;;;15.02;;
37715;SDS011;23562;50.540;12.504;2024-03-07T13:21:45;27.45;;;15.20;;
37715;SDS011;23562;50.540;12.504;2024-03-07T13:24:11;29.00;;;14.98;;
37715;SDS011;23562;50.540;12.504;2024-03-07T13:26:36;31.88;;;15.68;;
37715;SDS011;23562;50.540;12.504;2024-03-07T13:29:01;28.10;;;14.25;;
37715;SDS011;23562;50.540;12.504;2024-03-07T13:31:27;24.00;;;12.80;;
37715;SDS011;23562;50.540;12.504;2024-03-07T13:33:52;21.30;;;13.30;;
37715;SDS011;23562;50.540;12.504;2024-03-07T13:36:17;25.13;;;13.75;;
37715;SDS011;23562;50.540;12.504;2024-03-07T13:38:48;20.92;;;13.07;;
37715;SDS011;23562;50.540;12.504;2024-03-07T13:41:14;22.48;;;13.27;;
37715;SDS011;23562;50.540;12.504;2024-03-07T13:43:39;27.73;;;16.40;;
37715;SDS011;23562;50.540;12.504;2024-03-07T13:46:04;25.98;;;15.20;;
37715;SDS011;23562;50.540;12.504;2024-03-07T13:48:29;30.42;;;16.00;;
37715;SDS011;23562;50.540;12.504;2024-03-07T13:50:57;28.45;;;15.43;;
37715;SDS011;23562;50.540;12.504;2024-03-07T13:53:22;23.55;;;14.90;;
37715;SDS011;23562;50.540;12.504;2024-03-07T13:55:50;26.85;;;16.38;;
37715;SDS011;23562;50.540;12.504;2024-03-07T13:58:37;30.15;;;17.63;;
37715;SDS011;23562;50.540;12.504;2024-03-07T14:03:59;28.63;;;15.90;;
37715;SDS011;23562;50.540;12.504;2024-03-07T14:06:42;27.85;;;16.38;;
37715;SDS011;23562;50.540;12.504;2024-03-07T14:09:38;26.33;;;16.13;;
37715;SDS011;23562;50.540;12.504;2024-03-07T14:15:18;28.58;;;16.42;;
37715;SDS011;23562;50.540;12.504;2024-03-07T14:17:59;25.70;;;15.43;;